Time;durP1;ratioP1;P1;durP2;ratioP2;P2;SDS_P1;SDS_P2;PMS_P1;PMS_P2;Temp;Humidity;BMP_temperature;BMP_pressure;BME280_temperature;BME280_humidity;BME280_pressure;Samples;Min_cycle;Max_cycle;Signal;HPM_P1;HPM_P2
2022/05/24 00:02:19;;;;;;;8.85;4.93;;;;;;;;;;4304964;33;20553;-69
2022/05/24 00:34:16;;;;;;;8.05;4.82;;;;;;;;;;4437048;28;20213;-63
2022/05/24 00:36:42;;;;;;;7.87;5.03;;;;;;;;;;4184301;34;20106;-63
2022/05/24 00:39:08;;;;;;;9.35;4.40;;;;;;;;;;4188874;34;20114;-61
2022/05/24 00:41:42;;;;;;;7.72;4.75;;;;;;;;;;4177963;34;20543;-61
2022/05/24 00:44:35;;;;;;;8.57;5.15;;;;;;;;;;4184987;34;20124;-61
2022/05/24 00:47:03;;;;;;;7.60;4.95;;;;;;;;;;4189003;34;20286;-60
2022/05/24 00:49:33;;;;;;;9.75;5.87;;;;;;;;;;4191381;34;20109;-61
2022/05/24 00:52:08;;;;;;;6.40;5.18;;;;;;;;;;4187216;34;20571;-59
2022/05/24 00:54:34;;;;;;;9.82;5.75;;;;;;;;;;4177768;34;20634;-61
2022/05/24 00:57:29;;;;;;;8.68;5.22;;;;;;;;;;4177812;34;20127;-61
2022/05/24 01:00:09;;;;;;;8.80;5.37;;;;;;;;;;4176494;34;20102;-68
2022/05/24 01:02:36;;;;;;;7.55;5.10;;;;;;;;;;4177637;34;20121;-67
2022/05/24 01:05:06;;;;;;;7.57;5.53;;;;;;;;;;4177683;34;20459;-65
2022/05/24 01:07:32;;;;;;;7.57;4.87;;;;;;;;;;4177318;34;20117;-65
2022/05/24 01:10:02;;;;;;;7.05;4.90;;;;;;;;;;4185847;34;20673;-66
2022/05/24 01:12:52;;;;;;;13.25;5.30;;;;;;;;;;4191345;34;20697;-65
2022/05/24 01:15:19;;;;;;;5.50;4.90;;;;;;;;;;4191485;34;20102;-65
2022/05/24 01:17:46;;;;;;;8.30;4.07;;;;;;;;;;4191288;34;20126;-66
2022/05/24 01:20:13;;;;;;;6.28;4.70;;;;;;;;;;4190219;34;20098;-65
2022/05/24 01:22:57;;;;;;;11.15;4.45;;;;;;;;;;4189909;34;20105;-66
2022/05/24 01:25:49;;;;;;;8.13;4.68;;;;;;;;;;4191321;34;20114;-66
2022/05/24 01:28:22;;;;;;;27.48;6.03;;;;;;;;;;4191452;34;20114;-66
2022/05/24 01:30:49;;;;;;;11.50;5.43;;;;;;;;;;4191048;34;20098;-66
2022/05/24 01:36:13;;;;;;;8.10;5.15;;;;;;;;;;4189949;34;20114;-66
2022/05/24 01:38:50;;;;;;;9.10;5.60;;;;;;;;;;4176244;34;20661;-64
2022/05/24 01:41:22;;;;;;;6.75;4.80;;;;;;;;;;4175918;34;20189;-66
2022/05/24 01:43:51;;;;;;;13.05;5.35;;;;;;;;;;4177591;34;20154;-64
2022/05/24 01:46:20;;;;;;;12.95;6.65;;;;;;;;;;4177347;34;20125;-65
2022/05/24 01:48:53;;;;;;;13.25;6.18;;;;;;;;;;4175897;34;20098;-65
2022/05/24 01:51:23;;;;;;;14.68;6.10;;;;;;;;;;4176144;34;20133;-65
2022/05/24 01:53:52;;;;;;;14.70;6.20;;;;;;;;;;4175962;34;20137;-62
2022/05/24 01:56:22;;;;;;;10.38;5.78;;;;;;;;;;4175821;34;20201;-64
2022/05/24 01:58:51;;;;;;;12.82;6.12;;;;;;;;;;4175821;34;20202;-64
2022/05/24 02:01:26;;;;;;;12.23;6.12;;;;;;;;;;4175821;34;20506;-64
2022/05/24 02:03:52;;;;;;;9.10;6.18;;;;;;;;;;4177261;34;20102;-62
2022/05/24 02:06:27;;;;;;;20.70;6.62;;;;;;;;;;4177140;34;20114;-60
2022/05/24 02:08:54;;;;;;;15.95;7.80;;;;;;;;;;4175986;34;20221;-61
2022/05/24 02:11:26;;;;;;;13.65;7.60;;;;;;;;;;4184977;34;20495;-61
2022/05/24 02:14:15;;;;;;;19.55;10.07;;;;;;;;;;4190738;34;20118;-60
2022/05/24 02:16:53;;;;;;;19.08;10.10;;;;;;;;;;4190431;34;20122;-61
2022/05/24 02:19:19;;;;;;;19.50;11.15;;;;;;;;;;4190044;34;20118;-59
2022/05/24 02:21:47;;;;;;;23.62;10.23;;;;;;;;;;4177759;34;20553;-60
2022/05/24 02:24:19;;;;;;;18.37;10.35;;;;;;;;;;4189689;34;20101;-60
2022/05/24 02:26:45;;;;;;;17.55;10.50;;;;;;;;;;4190620;34;20114;-61
2022/05/24 02:29:11;;;;;;;15.20;8.95;;;;;;;;;;4191044;34;20522;-61
2022/05/24 02:31:37;;;;;;;16.80;8.80;;;;;;;;;;4190872;34;20187;-61
2022/05/24 02:34:03;;;;;;;18.00;9.00;;;;;;;;;;4189292;34;20458;-61
2022/05/24 02:36:29;;;;;;;14.52;8.60;;;;;;;;;;4190857;34;20105;-60
2022/05/24 02:38:55;;;;;;;20.75;9.15;;;;;;;;;;4180261;34;20514;-59
2022/05/24 02:41:31;;;;;;;17.10;9.07;;;;;;;;;;4176779;34;20458;-61
2022/05/24 02:44:02;;;;;;;15.57;8.75;;;;;;;;;;4176821;34;20126;-62
2022/05/24 02:46:30;;;;;;;19.27;8.85;;;;;;;;;;4176988;34;20150;-61
2022/05/24 02:48:56;;;;;;;16.92;8.90;;;;;;;;;;4176948;34;20110;-61
2022/05/24 02:51:22;;;;;;;17.23;9.93;;;;;;;;;;4175313;34;20135;-61
2022/05/24 02:53:48;;;;;;;17.67;8.50;;;;;;;;;;4176687;34;20110;-62
2022/05/24 02:56:15;;;;;;;11.98;7.37;;;;;;;;;;4176663;34;20186;-62
2022/05/24 02:58:42;;;;;;;12.20;6.85;;;;;;;;;;4176932;34;20126;-62
2022/05/24 03:01:18;;;;;;;10.45;6.47;;;;;;;;;;4175325;34;20105;-62
2022/05/24 03:03:44;;;;;;;7.37;5.00;;;;;;;;;;4163785;34;20118;-63
2022/05/24 03:06:11;;;;;;;13.48;6.20;;;;;;;;;;4176733;34;20125;-62
2022/05/24 03:11:22;;;;;;;9.13;4.82;;;;;;;;;;4176510;34;20105;-62
2022/05/24 03:16:32;;;;;;;5.72;2.90;;;;;;;;;;4176640;34;20141;-62
2022/05/24 03:18:58;;;;;;;7.05;2.67;;;;;;;;;;4176633;34;20126;-62
2022/05/24 03:21:24;;;;;;;5.30;3.17;;;;;;;;;;4176382;34;20511;-62
2022/05/24 03:23:50;;;;;;;6.37;2.90;;;;;;;;;;4176274;34;20095;-62
2022/05/24 03:26:16;;;;;;;8.88;3.50;;;;;;;;;;4175223;34;20098;-63
2022/05/24 03:28:43;;;;;;;5.18;3.20;;;;;;;;;;4174911;34;20448;-62
2022/05/24 03:31:09;;;;;;;4.43;2.90;;;;;;;;;;4176486;34;20108;-63
2022/05/24 03:33:35;;;;;;;5.68;3.60;;;;;;;;;;4178435;34;20117;-63
2022/05/24 03:36:02;;;;;;;4.78;2.92;;;;;;;;;;4178651;34;20165;-63
2022/05/24 03:38:30;;;;;;;9.98;3.10;;;;;;;;;;4176969;34;20121;-63
2022/05/24 03:40:56;;;;;;;6.60;2.80;;;;;;;;;;4178296;34;20120;-63
2022/05/24 03:43:22;;;;;;;6.43;2.58;;;;;;;;;;4178366;34;20467;-62
2022/05/24 03:45:49;;;;;;;5.45;2.75;;;;;;;;;;4178553;34;20186;-62
2022/05/24 03:48:15;;;;;;;3.72;2.67;;;;;;;;;;4178349;34;20207;-63
2022/05/24 03:50:41;;;;;;;7.35;2.90;;;;;;;;;;4178527;34;20142;-63
2022/05/24 03:53:07;;;;;;;5.62;2.90;;;;;;;;;;4177722;34;20145;-61
2022/05/24 03:55:33;;;;;;;4.30;2.72;;;;;;;;;;4189234;34;20133;-62
2022/05/24 03:58:02;;;;;;;5.65;2.83;;;;;;;;;;4176778;34;20130;-62
2022/05/24 04:00:34;;;;;;;3.83;2.70;;;;;;;;;;4175839;34;20190;-62
2022/05/24 04:03:01;;;;;;;6.20;3.10;;;;;;;;;;4173667;34;20146;-62
2022/05/24 04:05:28;;;;;;;7.70;2.70;;;;;;;;;;4175642;34;20498;-62
2022/05/24 04:07:54;;;;;;;6.85;2.95;;;;;;;;;;4175635;34;20110;-62
2022/05/24 04:10:20;;;;;;;2.60;2.40;;;;;;;;;;4176757;34;20102;-63
2022/05/24 04:12:47;;;;;;;4.62;2.47;;;;;;;;;;4175505;34;20549;-61
2022/05/24 04:15:14;;;;;;;2.70;2.40;;;;;;;;;;4183177;34;20117;-60
2022/05/24 04:17:40;;;;;;;9.00;2.47;;;;;;;;;;4178996;34;20503;-63
2022/05/24 04:20:06;;;;;;;4.55;2.50;;;;;;;;;;4191518;34;20094;-62
2022/05/24 04:22:32;;;;;;;14.07;3.35;;;;;;;;;;4190043;34;20197;-62
2022/05/24 04:24:59;;;;;;;8.80;2.92;;;;;;;;;;4191730;34;20102;-62
2022/05/24 04:27:25;;;;;;;6.30;2.90;;;;;;;;;;4189679;34;20551;-63
2022/05/24 04:29:53;;;;;;;7.70;5.35;;;;;;;;;;4189354;34;20133;-62
2022/05/24 04:32:20;;;;;;;2.87;2.33;;;;;;;;;;4190392;34;20086;-62
2022/05/24 04:34:46;;;;;;;3.12;2.28;;;;;;;;;;4190175;34;20538;-62
2022/05/24 04:37:12;;;;;;;5.82;2.40;;;;;;;;;;4191084;34;20137;-63
2022/05/24 04:39:38;;;;;;;4.12;2.60;;;;;;;;;;4178267;34;20213;-63
2022/05/24 04:42:21;;;;;;;4.18;2.30;;;;;;;;;;4175757;34;20103;-62
2022/05/24 04:44:58;;;;;;;4.07;2.08;;;;;;;;;;4178023;34;20164;-62
2022/05/24 04:47:28;;;;;;;5.65;2.25;;;;;;;;;;4177794;34;20541;-62
2022/05/24 04:49:56;;;;;;;3.00;2.15;;;;;;;;;;4177775;34;20098;-63
2022/05/24 04:52:23;;;;;;;2.72;1.70;;;;;;;;;;4177815;34;20198;-62
2022/05/24 04:54:50;;;;;;;3.78;2.12;;;;;;;;;;4176599;34;20114;-61
2022/05/24 04:57:16;;;;;;;3.22;2.45;;;;;;;;;;4176345;34;20142;-63
2022/05/24 04:59:42;;;;;;;5.12;2.25;;;;;;;;;;4176272;34;20427;-63
2022/05/24 05:02:08;;;;;;;2.60;2.22;;;;;;;;;;4177952;34;20108;-62
2022/05/24 05:04:35;;;;;;;4.28;2.15;;;;;;;;;;4177625;34;20087;-62
2022/05/24 05:07:01;;;;;;;3.53;1.87;;;;;;;;;;4176259;34;20102;-63
2022/05/24 05:09:34;;;;;;;2.78;2.47;;;;;;;;;;4178067;34;20185;-63
2022/05/24 05:12:08;;;;;;;4.35;2.20;;;;;;;;;;4176498;34;20125;-63
2022/05/24 05:14:35;;;;;;;2.55;2.10;;;;;;;;;;4178070;34;20190;-63
2022/05/24 05:17:02;;;;;;;16.35;3.55;;;;;;;;;;4176540;34;20509;-63
2022/05/24 05:19:28;;;;;;;5.70;2.33;;;;;;;;;;4177697;34;20109;-63
2022/05/24 05:21:54;;;;;;;5.87;2.30;;;;;;;;;;4164950;34;20637;-62
2022/05/24 05:24:20;;;;;;;4.60;2.40;;;;;;;;;;4176373;34;20174;-62
2022/05/24 05:26:46;;;;;;;4.50;2.45;;;;;;;;;;4177467;34;20109;-61
2022/05/24 05:29:12;;;;;;;4.90;3.05;;;;;;;;;;4177343;34;20537;-63
2022/05/24 05:31:39;;;;;;;3.37;2.08;;;;;;;;;;4176000;34;20495;-61
2022/05/24 05:34:05;;;;;;;2.97;2.37;;;;;;;;;;4177715;34;20625;-62
2022/05/24 05:36:32;;;;;;;4.90;2.15;;;;;;;;;;4177337;34;20123;-62
2022/05/24 05:38:59;;;;;;;4.87;2.30;;;;;;;;;;4176201;34;20548;-62
2022/05/24 05:41:30;;;;;;;3.80;2.10;;;;;;;;;;4177569;34;20122;-62
2022/05/24 05:43:57;;;;;;;3.47;2.22;;;;;;;;;;4177145;34;20137;-62
2022/05/24 05:46:23;;;;;;;2.22;2.03;;;;;;;;;;4177344;34;20619;-62
2022/05/24 05:48:49;;;;;;;3.33;2.00;;;;;;;;;;4177411;34;20649;-61
2022/05/24 05:51:17;;;;;;;2.78;2.20;;;;;;;;;;4177401;34;20452;-59
2022/05/24 05:53:44;;;;;;;7.10;3.45;;;;;;;;;;4175299;34;20118;-63
2022/05/24 05:56:15;;;;;;;4.05;2.25;;;;;;;;;;4177123;34;20535;-62
2022/05/24 05:58:41;;;;;;;5.28;2.40;;;;;;;;;;4175719;34;20110;-68
2022/05/24 06:01:13;;;;;;;11.90;3.12;;;;;;;;;;4164285;34;20305;-68
2022/05/24 06:03:39;;;;;;;2.83;1.98;;;;;;;;;;4175417;34;20098;-67
2022/05/24 06:06:05;;;;;;;4.20;2.58;;;;;;;;;;4177109;34;20145;-67
2022/05/24 06:08:31;;;;;;;8.77;2.80;;;;;;;;;;4176763;34;20570;-72
2022/05/24 06:10:57;;;;;;;3.10;2.15;;;;;;;;;;4177138;34;20110;-71
2022/05/24 06:13:23;;;;;;;15.30;2.80;;;;;;;;;;4176624;34;20106;-71
2022/05/24 06:15:51;;;;;;;2.55;1.87;;;;;;;;;;4176845;34;20099;-71
2022/05/24 06:18:17;;;;;;;4.28;2.03;;;;;;;;;;4176530;34;20201;-72
2022/05/24 06:20:43;;;;;;;4.95;2.10;;;;;;;;;;4175574;34;20120;-70
2022/05/24 06:23:09;;;;;;;5.50;2.05;;;;;;;;;;4175034;34;20123;-67
2022/05/24 06:25:35;;;;;;;9.23;2.50;;;;;;;;;;4174496;34;20170;-68
2022/05/24 06:28:01;;;;;;;9.93;2.20;;;;;;;;;;4176693;34;20218;-67
2022/05/24 06:30:28;;;;;;;5.97;2.10;;;;;;;;;;4175188;34;20114;-72
2022/05/24 06:32:54;;;;;;;3.10;2.22;;;;;;;;;;4176646;34;20202;-68
2022/05/24 06:35:21;;;;;;;8.75;2.42;;;;;;;;;;4176674;34;20598;-69
2022/05/24 06:37:48;;;;;;;3.47;2.42;;;;;;;;;;4176301;34;20512;-68
2022/05/24 06:40:17;;;;;;;4.18;2.00;;;;;;;;;;4176591;34;20554;-68
2022/05/24 06:42:43;;;;;;;3.83;2.53;;;;;;;;;;4176713;34;20499;-68
2022/05/24 06:45:10;;;;;;;2.75;2.00;;;;;;;;;;4175531;34;20094;-67
2022/05/24 06:47:37;;;;;;;7.32;1.90;;;;;;;;;;4175374;34;20084;-66
2022/05/24 06:50:04;;;;;;;6.10;1.90;;;;;;;;;;4176853;34;20431;-67
2022/05/24 06:52:30;;;;;;;7.28;2.20;;;;;;;;;;4175099;34;20144;-68
2022/05/24 06:54:56;;;;;;;3.62;2.17;;;;;;;;;;4176813;34;20233;-68
2022/05/24 06:57:22;;;;;;;7.70;2.15;;;;;;;;;;4175219;34;20205;-68
2022/05/24 07:02:34;;;;;;;4.80;2.10;;;;;;;;;;4176524;34;20090;-68
2022/05/24 07:05:07;;;;;;;11.07;2.70;;;;;;;;;;4176143;34;20436;-69
2022/05/24 07:07:34;;;;;;;9.93;3.42;;;;;;;;;;4175738;34;20109;-70
2022/05/24 07:10:00;;;;;;;9.27;2.95;;;;;;;;;;4175517;34;20200;-69
2022/05/24 07:12:27;;;;;;;8.65;2.50;;;;;;;;;;4176881;34;20122;-70
2022/05/24 07:14:53;;;;;;;4.62;2.00;;;;;;;;;;4176424;34;20534;-71
2022/05/24 07:17:20;;;;;;;3.25;1.40;;;;;;;;;;4175041;34;20198;-68
2022/05/24 07:19:46;;;;;;;2.05;1.60;;;;;;;;;;4176501;34;20183;-68
2022/05/24 07:22:13;;;;;;;2.03;1.05;;;;;;;;;;4175018;34;20506;-68
2022/05/24 07:24:39;;;;;;;3.40;1.67;;;;;;;;;;4174926;34;20122;-68
2022/05/24 07:27:09;;;;;;;4.70;2.40;;;;;;;;;;4176046;34;20106;-68
2022/05/24 07:29:36;;;;;;;1.05;1.05;;;;;;;;;;4163451;34;20225;-69
2022/05/24 07:32:04;;;;;;;5.60;1.62;;;;;;;;;;4176130;34;20111;-69
2022/05/24 07:34:31;;;;;;;2.47;1.83;;;;;;;;;;4175924;34;20202;-68
2022/05/24 07:36:57;;;;;;;1.50;1.40;;;;;;;;;;4176068;34;20105;-72
2022/05/24 07:39:24;;;;;;;3.78;1.80;;;;;;;;;;4176291;34;20221;-65
2022/05/24 07:47:19;;;;;;;1.55;1.40;;;;;;;;;;4176114;34;20206;-69
2022/05/24 07:49:45;;;;;;;2.92;2.05;;;;;;;;;;4174378;34;20205;-69
2022/05/24 07:52:11;;;;;;;1.85;1.20;;;;;;;;;;4175989;34;20117;-68
2022/05/24 07:54:37;;;;;;;2.08;1.52;;;;;;;;;;4174233;34;20202;-69
2022/05/24 07:57:08;;;;;;;2.15;1.80;;;;;;;;;;4175980;34;20118;-69
2022/05/24 07:59:37;;;;;;;3.28;1.92;;;;;;;;;;4175757;34;20128;-69
2022/05/24 08:02:04;;;;;;;6.70;2.60;;;;;;;;;;4174865;34;20118;-67
2022/05/24 08:04:31;;;;;;;13.27;3.20;;;;;;;;;;4174432;34;20199;-67
2022/05/24 08:06:57;;;;;;;1.75;1.62;;;;;;;;;;4176059;34;20110;-67
2022/05/24 08:09:23;;;;;;;2.28;1.77;;;;;;;;;;4175955;34;20119;-67
2022/05/24 08:11:49;;;;;;;2.22;1.75;;;;;;;;;;4175713;34;20217;-67
2022/05/24 08:14:15;;;;;;;5.72;2.85;;;;;;;;;;4175899;34;20118;-66
2022/05/24 08:16:41;;;;;;;10.40;2.55;;;;;;;;;;4176290;34;20221;-67
2022/05/24 08:19:08;;;;;;;3.03;2.67;;;;;;;;;;4178119;34;20194;-67
2022/05/24 08:21:34;;;;;;;11.12;2.83;;;;;;;;;;4178100;34;20117;-66
2022/05/24 08:24:01;;;;;;;4.03;2.50;;;;;;;;;;4178290;34;20205;-66
2022/05/24 08:26:27;;;;;;;6.18;3.55;;;;;;;;;;4176647;34;20191;-67
2022/05/24 08:28:53;;;;;;;8.25;4.00;;;;;;;;;;4176565;34;20665;-67
2022/05/24 08:31:20;;;;;;;3.80;2.22;;;;;;;;;;4165412;34;20456;-67
2022/05/24 08:33:47;;;;;;;5.78;2.60;;;;;;;;;;4177352;34;20199;-67
2022/05/24 08:36:14;;;;;;;9.15;2.65;;;;;;;;;;4176630;34;20091;-66
2022/05/24 08:38:41;;;;;;;3.87;2.50;;;;;;;;;;4176401;34;20141;-66
2022/05/24 08:41:12;;;;;;;4.30;2.20;;;;;;;;;;4178155;34;20082;-67
2022/05/24 08:43:51;;;;;;;5.30;2.92;;;;;;;;;;4176271;34;20183;-66
2022/05/24 08:49:11;;;;;;;2.78;2.17;;;;;;;;;;4166730;34;20125;-67
2022/05/24 08:51:47;;;;;;;6.90;3.58;;;;;;;;;;4177706;34;20116;-67
2022/05/24 08:54:16;;;;;;;3.17;2.47;;;;;;;;;;4176812;34;20209;-66
2022/05/24 08:56:59;;;;;;;6.18;3.00;;;;;;;;;;4165169;34;20134;-68
2022/05/24 08:59:34;;;;;;;4.30;2.65;;;;;;;;;;4176477;34;20459;-66
2022/05/24 09:02:00;;;;;;;5.47;2.35;;;;;;;;;;4176348;34;20125;-66
2022/05/24 09:04:27;;;;;;;3.50;2.58;;;;;;;;;;4177807;34;20102;-67
2022/05/24 09:07:14;;;;;;;4.47;2.70;;;;;;;;;;4176543;34;20103;-67
2022/05/24 09:09:49;;;;;;;5.78;2.47;;;;;;;;;;4176571;34;20223;-67
2022/05/24 09:12:33;;;;;;;7.95;3.28;;;;;;;;;;4177883;34;20118;-66
2022/05/24 09:15:15;;;;;;;4.87;2.45;;;;;;;;;;4177740;34;20472;-67
2022/05/24 09:17:48;;;;;;;4.12;2.33;;;;;;;;;;4164999;34;20278;-67
2022/05/24 09:20:27;;;;;;;3.08;2.40;;;;;;;;;;4177494;34;20594;-65
2022/05/24 09:23:19;;;;;;;5.82;2.30;;;;;;;;;;4176107;34;20119;-67
2022/05/24 09:26:01;;;;;;;6.90;3.00;;;;;;;;;;4177402;34;20122;-66
2022/05/24 09:28:48;;;;;;;4.68;2.80;;;;;;;;;;4175544;34;20567;-67
2022/05/24 09:31:20;;;;;;;5.03;3.03;;;;;;;;;;4152886;34;20106;-64
2022/05/24 09:33:46;;;;;;;4.70;2.25;;;;;;;;;;4177432;34;20214;-66
2022/05/24 09:36:35;;;;;;;1.08;1.08;;;;;;;;;;4177408;34;20134;-65
2022/05/24 09:39:04;;;;;;;1.30;1.30;;;;;;;;;;4176302;34;20101;-67
2022/05/24 09:41:30;;;;;;;1.55;1.45;;;;;;;;;;4176936;34;20203;-66
2022/05/24 09:44:00;;;;;;;3.83;2.40;;;;;;;;;;4177086;34;20524;-67
2022/05/24 09:46:28;;;;;;;1.90;1.50;;;;;;;;;;4175830;34;20119;-68
2022/05/24 09:48:57;;;;;;;3.67;1.40;;;;;;;;;;4177331;34;20760;-68
2022/05/24 09:51:36;;;;;;;4.32;1.90;;;;;;;;;;4177309;34;20119;-67
2022/05/24 09:54:05;;;;;;;1.65;1.55;;;;;;;;;;4164565;34;20107;-68
2022/05/24 09:56:34;;;;;;;6.25;2.67;;;;;;;;;;4177248;34;20117;-68
2022/05/24 09:59:03;;;;;;;3.90;2.78;;;;;;;;;;4175914;34;20107;-68
2022/05/24 10:01:30;;;;;;;4.25;2.40;;;;;;;;;;4175827;34;20215;-68
2022/05/24 10:04:25;;;;;;;2.97;2.47;;;;;;;;;;4174678;34;20141;-68
2022/05/24 10:06:55;;;;;;;1.70;1.60;;;;;;;;;;4172901;34;20115;-67
2022/05/24 10:09:39;;;;;;;1.12;1.10;;;;;;;;;;4175286;34;20109;-68
2022/05/24 10:12:18;;;;;;;5.95;2.12;;;;;;;;;;4175977;34;20106;-69
2022/05/24 10:15:17;;;;;;;1.00;1.00;;;;;;;;;;4175614;34;20518;-70
2022/05/24 10:18:28;;;;;;;3.20;2.15;;;;;;;;;;4175638;34;20210;-69
2022/05/24 10:21:06;;;;;;;2.15;1.95;;;;;;;;;;4177330;34;20198;-67
2022/05/24 10:23:43;;;;;;;11.32;3.62;;;;;;;;;;4177200;34;20103;-68
2022/05/24 10:26:21;;;;;;;1.95;1.60;;;;;;;;;;4175691;34;20117;-68
2022/05/24 10:29:20;;;;;;;3.72;2.70;;;;;;;;;;4176712;34;20114;-67
2022/05/24 10:31:56;;;;;;;1.95;1.73;;;;;;;;;;4165641;34;20498;-69
2022/05/24 10:40:37;;;;;;;2.92;1.48;;;;;;;;;;4171953;34;20132;-66
2022/05/24 10:43:40;;;;;;;2.50;1.87;;;;;;;;;;4172482;34;20145;-66
2022/05/24 10:46:11;;;;;;;1.70;1.60;;;;;;;;;;4173123;34;20221;-68
2022/05/24 10:48:56;;;;;;;1.37;1.27;;;;;;;;;;4175579;34;20125;-67
2022/05/24 10:51:48;;;;;;;1.55;1.37;;;;;;;;;;4164130;34;20456;-67
2022/05/24 10:54:44;;;;;;;2.05;1.85;;;;;;;;;;4176831;34;20602;-68
2022/05/24 10:57:15;;;;;;;;;;;;;;;;;;4177103;34;20201;-68
2022/05/24 11:00:04;;;;;;;1.45;1.35;;;;;;;;;;4176541;34;20000;-68
2022/05/24 11:02:57;;;;;;;6.37;2.37;;;;;;;;;;4176438;34;20094;-68
2022/05/24 11:05:36;;;;;;;2.70;2.25;;;;;;;;;;4168475;34;20095;-66
2022/05/24 11:08:39;;;;;;;1.37;1.27;;;;;;;;;;4175338;34;20106;-66
2022/05/24 11:11:15;;;;;;;2.20;1.73;;;;;;;;;;4164707;34;20122;-69
2022/05/24 11:13:46;;;;;;;2.80;1.65;;;;;;;;;;4175138;34;20553;-69
2022/05/24 11:16:19;;;;;;;1.25;1.15;;;;;;;;;;4175155;34;20114;-66
2022/05/24 11:18:45;;;;;;;2.92;1.48;;;;;;;;;;4176775;34;20134;-69
2022/05/24 11:21:47;;;;;;;1.10;1.10;;;;;;;;;;4176679;34;20090;-69
2022/05/24 11:24:36;;;;;;;1.42;1.33;;;;;;;;;;4170297;34;20132;-69
2022/05/24 11:27:05;;;;;;;3.22;1.83;;;;;;;;;;4176346;34;20817;-69
2022/05/24 11:29:44;;;;;;;4.07;2.28;;;;;;;;;;4175151;34;20118;-70
2022/05/24 11:32:11;;;;;;;4.70;2.15;;;;;;;;;;4174981;34;20114;-66
2022/05/24 11:34:50;;;;;;;7.90;1.27;;;;;;;;;;4175036;34;20110;-67
2022/05/24 11:37:26;;;;;;;1.75;1.40;;;;;;;;;;4163709;34;20503;-66
2022/05/24 11:39:53;;;;;;;1.35;1.35;;;;;;;;;;4174750;34;20126;-68
2022/05/24 11:42:21;;;;;;;3.35;2.00;;;;;;;;;;4174723;34;20087;-67
2022/05/24 11:44:49;;;;;;;1.87;1.70;;;;;;;;;;4176202;34;20447;-67
2022/05/24 11:47:33;;;;;;;1.37;1.27;;;;;;;;;;4174732;34;20114;-67
2022/05/24 11:50:01;;;;;;;1.10;1.10;;;;;;;;;;4176461;34;20207;-67
2022/05/24 11:52:43;;;;;;;0.93;0.93;;;;;;;;;;4176619;34;20533;-67
2022/05/24 11:55:09;;;;;;;1.45;1.35;;;;;;;;;;4178316;34;20209;-68
2022/05/24 11:57:41;;;;;;;7.37;2.90;;;;;;;;;;4176670;34;20107;-70
2022/05/24 12:00:10;;;;;;;8.50;3.15;;;;;;;;;;4177242;34;20214;-69
2022/05/24 12:07:54;;;;;;;1.25;1.15;;;;;;;;;;4176645;34;20575;-69
2022/05/24 12:08:27;;;;;;;2.95;1.85;;;;;;;;;;4170973;34;20018;-69
2022/05/24 12:11:09;;;;;;;2.08;1.75;;;;;;;;;;4178532;34;20141;-70
2022/05/24 12:13:48;;;;;;;1.45;1.35;;;;;;;;;;4176929;34;20486;-68
2022/05/24 12:16:38;;;;;;;2.60;2.20;;;;;;;;;;4178123;34;20214;-69
2022/05/24 12:19:04;;;;;;;1.25;1.23;;;;;;;;;;4178154;34;20110;-68
2022/05/24 12:21:39;;;;;;;1.80;1.70;;;;;;;;;;4176871;34;20454;-66
2022/05/24 12:24:42;;;;;;;5.12;2.78;;;;;;;;;;4177918;34;20114;-65
2022/05/24 12:27:15;;;;;;;1.83;1.65;;;;;;;;;;4178083;34;20109;-66
2022/05/24 12:29:43;;;;;;;3.30;1.75;;;;;;;;;;4176955;34;20221;-66
2022/05/24 12:32:09;;;;;;;2.87;2.20;;;;;;;;;;4177974;34;20095;-67
2022/05/24 12:34:35;;;;;;;5.03;2.03;;;;;;;;;;4176599;34;20541;-66
2022/05/24 12:37:10;;;;;;;2.35;2.05;;;;;;;;;;4177965;34;20222;-67
2022/05/24 12:39:36;;;;;;;;;;;;;;;;;;4165504;34;20141;-67
2022/05/24 12:42:08;;;;;;;1.80;1.70;;;;;;;;;;4165200;34;19982;-67
2022/05/24 12:44:41;;;;;;;8.90;2.62;;;;;;;;;;4178058;34;20117;-67
2022/05/24 12:47:07;;;;;;;1.80;1.70;;;;;;;;;;4176577;34;20123;-67
2022/05/24 12:49:50;;;;;;;1.70;1.60;;;;;;;;;;4176438;34;20118;-67
2022/05/24 12:52:26;;;;;;;5.47;2.87;;;;;;;;;;4177812;34;20106;-68
2022/05/24 12:54:54;;;;;;;12.63;2.55;;;;;;;;;;4176412;34;20111;-67
2022/05/24 12:57:29;;;;;;;2.45;2.25;;;;;;;;;;4176390;34;20193;-65
2022/05/24 12:59:58;;;;;;;8.25;2.70;;;;;;;;;;4177878;34;20107;-68
2022/05/24 13:02:39;;;;;;;2.33;2.10;;;;;;;;;;4175688;34;20595;-68
2022/05/24 13:05:08;;;;;;;5.60;2.70;;;;;;;;;;4177991;34;20113;-66
2022/05/24 13:07:54;;;;;;;3.25;2.22;;;;;;;;;;4177775;34;20116;-65
2022/05/24 13:10:20;;;;;;;9.45;2.37;;;;;;;;;;4174943;34;20121;-68
2022/05/24 13:12:58;;;;;;;3.47;2.40;;;;;;;;;;4177429;34;20106;-68
2022/05/24 13:15:31;;;;;;;6.35;2.50;;;;;;;;;;4176160;34;20546;-67
2022/05/24 13:18:02;;;;;;;5.65;2.83;;;;;;;;;;4176655;34;20110;-67
2022/05/24 13:20:40;;;;;;;5.03;2.87;;;;;;;;;;4176068;34;20114;-65
2022/05/24 13:23:28;;;;;;;9.25;2.45;;;;;;;;;;4177367;34;20106;-67
2022/05/24 13:26:13;;;;;;;6.78;2.25;;;;;;;;;;4173839;34;20157;-67
2022/05/24 13:28:48;;;;;;;5.27;2.83;;;;;;;;;;4176245;34;20528;-65
2022/05/24 13:34:23;;;;;;;10.80;4.20;;;;;;;;;;4177398;34;20111;-65
2022/05/24 13:36:55;;;;;;;1.48;1.37;;;;;;;;;;4177356;34;20529;-65
2022/05/24 13:39:30;;;;;;;15.80;3.78;;;;;;;;;;4177380;34;20536;-65
2022/05/24 13:42:07;;;;;;;6.62;3.55;;;;;;;;;;4175967;34;20125;-64
2022/05/24 13:44:34;;;;;;;4.03;2.62;;;;;;;;;;4175966;34;20105;-64
2022/05/24 13:47:07;;;;;;;8.23;2.47;;;;;;;;;;4176155;34;20125;-67
2022/05/24 13:49:39;;;;;;;3.58;2.75;;;;;;;;;;4177276;34;20538;-66
2022/05/24 13:52:31;;;;;;;5.20;2.90;;;;;;;;;;4175731;34;20214;-64
2022/05/24 13:55:17;;;;;;;8.18;3.28;;;;;;;;;;4177421;34;20618;-65
2022/05/24 13:57:42;;;;;;;;;;;;;;;;;;4176134;34;20237;-65
2022/05/24 14:00:18;;;;;;;4.82;3.08;;;;;;;;;;4177260;34;20002;-66
2022/05/24 14:02:47;;;;;;;12.00;4.22;;;;;;;;;;4175979;34;20105;-66
2022/05/24 14:05:32;;;;;;;5.03;3.12;;;;;;;;;;4176070;34;20114;-65
2022/05/24 14:07:58;;;;;;;6.80;4.12;;;;;;;;;;4177095;34;20256;-68
2022/05/24 14:10:25;;;;;;;8.43;4.03;;;;;;;;;;4177163;34;20118;-66
2022/05/24 14:12:51;;;;;;;8.93;4.60;;;;;;;;;;4177021;34;20106;-66
2022/05/24 14:15:17;;;;;;;13.45;3.53;;;;;;;;;;4177062;34;20177;-68
2022/05/24 14:17:43;;;;;;;13.13;6.35;;;;;;;;;;4177206;34;20103;-67
2022/05/24 14:20:10;;;;;;;8.35;4.40;;;;;;;;;;4177290;34;20194;-68
2022/05/24 14:22:36;;;;;;;9.73;3.80;;;;;;;;;;4175498;34;20150;-67
2022/05/24 14:25:03;;;;;;;8.77;3.60;;;;;;;;;;4177156;34;20112;-67
2022/05/24 14:27:29;;;;;;;6.30;3.70;;;;;;;;;;4176863;34;20194;-67
2022/05/24 14:29:55;;;;;;;5.00;3.65;;;;;;;;;;4176912;34;20459;-69
2022/05/24 14:32:21;;;;;;;9.95;4.50;;;;;;;;;;4176756;34;20102;-68
2022/05/24 14:34:48;;;;;;;8.63;3.40;;;;;;;;;;4176869;34;20122;-67
2022/05/24 14:37:15;;;;;;;4.32;3.15;;;;;;;;;;4176867;34;20126;-67
2022/05/24 14:39:41;;;;;;;6.55;3.47;;;;;;;;;;4176927;34;20555;-68
2022/05/24 14:42:08;;;;;;;4.43;2.78;;;;;;;;;;4176848;34;20618;-67
2022/05/24 14:44:38;;;;;;;5.12;2.87;;;;;;;;;;4175381;34;20129;-67
2022/05/24 14:47:04;;;;;;;10.95;4.10;;;;;;;;;;4177003;34;20213;-70
2022/05/24 14:49:30;;;;;;;9.00;3.83;;;;;;;;;;4176667;34;20126;-66
2022/05/24 14:51:57;;;;;;;8.55;3.97;;;;;;;;;;4176853;34;20122;-70
2022/05/24 14:54:24;;;;;;;11.77;4.87;;;;;;;;;;4176621;34;20248;-66
2022/05/24 14:56:50;;;;;;;7.97;4.95;;;;;;;;;;4176655;34;20113;-67
2022/05/24 14:59:17;;;;;;;9.43;3.17;;;;;;;;;;4176790;34;20141;-69
2022/05/24 15:01:44;;;;;;;5.72;2.62;;;;;;;;;;4175423;34;20120;-72
2022/05/24 15:04:11;;;;;;;5.53;2.65;;;;;;;;;;4175087;34;20110;-68
2022/05/24 15:06:39;;;;;;;16.98;2.90;;;;;;;;;;4176631;34;20129;-70
2022/05/24 15:17:34;;;;;;;10.00;2.67;;;;;;;;;;4176349;34;20114;-69
2022/05/24 15:20:16;;;;;;;7.00;2.70;;;;;;;;;;4176392;34;20208;-70
2022/05/24 15:22:56;;;;;;;12.13;2.67;;;;;;;;;;4174327;34;20528;-67
2022/05/24 15:25:26;;;;;;;7.40;2.58;;;;;;;;;;4176531;34;20129;-67
2022/05/24 15:27:53;;;;;;;5.22;2.90;;;;;;;;;;4165989;34;20127;-67
2022/05/24 15:30:19;;;;;;;8.60;2.58;;;;;;;;;;4178628;34;20118;-69
2022/05/24 15:32:46;;;;;;;11.05;2.90;;;;;;;;;;4176417;34;20136;-68
2022/05/24 15:35:12;;;;;;;4.95;2.70;;;;;;;;;;4177090;34;20537;-73
2022/05/24 15:37:38;;;;;;;16.48;2.85;;;;;;;;;;4178156;34;20129;-70
2022/05/24 15:40:05;;;;;;;7.50;3.15;;;;;;;;;;4178496;34;20099;-67
2022/05/24 15:42:32;;;;;;;8.32;2.90;;;;;;;;;;4178233;34;20691;-67
2022/05/24 15:44:59;;;;;;;5.93;2.12;;;;;;;;;;4178515;34;20532;-67
2022/05/24 15:47:25;;;;;;;4.93;2.70;;;;;;;;;;4178283;34;20110;-68
2022/05/24 15:49:51;;;;;;;6.55;3.12;;;;;;;;;;4178344;34;20114;-64
2022/05/24 15:52:17;;;;;;;5.07;2.70;;;;;;;;;;4178212;34;20515;-64
2022/05/24 15:54:43;;;;;;;30.60;4.97;;;;;;;;;;4178542;34;20179;-66
2022/05/24 15:57:09;;;;;;;5.65;2.78;;;;;;;;;;4178195;34;20210;-66
2022/05/24 15:59:38;;;;;;;3.35;2.30;;;;;;;;;;4177048;34;20126;-68
2022/05/24 16:02:04;;;;;;;4.20;2.70;;;;;;;;;;4178143;34;20094;-66
2022/05/24 16:10:05;;;;;;;8.18;2.67;;;;;;;;;;4178303;34;20114;-68
2022/05/24 16:12:42;;;;;;;3.78;2.65;;;;;;;;;;4177999;34;20129;-67
2022/05/24 16:15:09;;;;;;;6.75;2.70;;;;;;;;;;4176860;34;20464;-66
2022/05/24 16:17:46;;;;;;;9.15;2.95;;;;;;;;;;4175111;34;20128;-67
2022/05/24 16:20:12;;;;;;;10.10;2.62;;;;;;;;;;4186754;34;20562;-65